Latest Weather Observations for Yarrawonga

IDV60801

Issued at 7:05 pm EST Thursday 31 July 2014 (issued every 30 minutes, with the page automatically refreshed every 10 minutes)

About weather observations | Map of weather stations | Latest weather observations for VIC | Other Formats
Station Details ID: 081124 Name: YARRAWONGA Lat: -36.03 Lon: 146.03 Height: 128.9 m
Data from the previous 72 hours. | See also: Recent months at Yarrawonga
Date/Time
EST
Temp
°C
App
Temp
°C
Dew
Point
Rel
Hum
%
Delta-T
°C
Wind Press
QNH
hPa
Press
MSL
hPa
Rain
since 9 am
mm
Dir
 
Spd
km/h
Gust
km/h
Spd
kts
Gust
kts
31/07:00pm 13.9 10.2 4.5 53 4.4 NNW 13 19 7 10 1001.2 1001.4 0.0
31/06:30pm 12.9 9.0 5.3 60 3.6 N 15 17 8 9 1001.0 - 0.0
31/06:00pm 12.5 9.3 5.2 61 3.4 NNW 11 13 6 7 1001.1 1001.3 0.0
31/05:30pm 14.7 11.1 5.0 52 4.6 NNW 13 19 7 10 1000.9 - 0.0
31/05:00pm 16.9 12.1 4.6 44 5.9 NNW 19 26 10 14 1000.9 1001.1 0.0
31/04:30pm 18.4 12.9 3.8 38 6.9 NNW 22 32 12 17 1001.1 - 0.0
31/04:00pm 19.1 12.4 3.7 36 7.4 NNW 28 37 15 20 1001.3 1001.5 0.0
31/03:36pm 19.3 12.3 4.3 37 7.2 NNW 30 48 16 26 1001.5 - 0.0
31/03:30pm 19.4 12.1 4.4 37 7.2 NNW 32 48 17 26 1001.7 - 0.0
31/03:20pm 19.4 12.8 4.0 36 7.4 NNW 28 46 15 25 1001.9 - 0.0
31/03:00pm 19.9 13.2 3.6 34 7.8 NNW 28 43 15 23 1002.3 1002.5 0.0
31/02:35pm 20.0 12.5 3.7 34 7.8 NNW 32 52 17 28 1002.5 - 0.0
31/02:30pm 19.8 12.4 3.9 35 7.6 NNW 32 46 17 25 1002.5 - 0.0
31/02:04pm 19.3 11.0 4.3 37 7.2 NNW 37 57 20 31 1002.6 - 0.0
31/02:00pm 19.3 11.1 5.0 39 7.0 NNW 37 50 20 27 1002.7 1002.9 0.0
31/01:30pm 19.0 10.0 4.7 39 6.9 N 41 54 22 29 1003.3 - 0.0
31/01:00pm 18.7 11.1 5.9 43 6.4 N 35 48 19 26 1004.4 1004.6 0.0
31/12:30pm 18.1 11.1 6.9 48 5.6 N 33 46 18 25 1005.3 - 0.0
31/12:00pm 17.2 10.4 7.0 51 5.1 N 32 44 17 24 1006.4 1006.7 0.0
31/11:30am 16.5 10.5 6.9 53 4.8 N 28 39 15 21 1007.5 - 0.0
31/11:00am 15.7 10.9 7.2 57 4.2 N 22 33 12 18 1008.3 1008.5 0.0
31/10:30am 13.8 9.3 7.1 64 3.3 N 20 28 11 15 1009.0 - 0.0
31/10:00am 12.2 7.9 6.9 70 2.6 N 19 26 10 14 1009.4 1009.6 0.0
31/09:30am 10.8 6.3 6.2 73 2.2 N 19 24 10 13 1009.8 - 0.0
31/09:00am 9.5 5.0 6.0 79 1.6 N 19 24 10 13 1010.2 1010.4 0.0
31/08:30am 8.0 3.2 5.6 85 1.1 N 20 26 11 14 1010.6 - 0.0
31/08:00am 7.4 2.8 5.7 89 0.8 N 19 22 10 12 1010.8 1011.0 0.0
31/07:30am 6.8 3.1 6.1 95 0.3 N 15 20 8 11 1010.9 - 0.0
31/07:00am 6.9 3.2 6.3 96 0.3 N 15 22 8 12 1010.9 1011.1 0.0
31/06:30am 7.2 3.6 6.9 98 0.1 N 15 19 8 10 1011.0 - 0.0
31/06:00am 7.6 4.5 7.3 98 0.1 N 13 17 7 9 1010.9 1011.1 0.0
31/05:30am 8.3 4.9 7.5 95 0.4 NNE 15 19 8 10 1010.9 - 0.0
31/05:00am 9.1 5.9 8.3 95 0.4 N 15 22 8 12 1011.3 1011.5 0.0
31/04:30am 9.8 8.0 9.5 98 0.2 NNE 9 11 5 6 1011.5 - 0.0
31/04:00am 10.3 8.6 10.0 98 0.2 N 9 13 5 7 1011.9 1012.2 0.0
31/03:30am 10.5 8.9 10.2 98 0.2 N 9 13 5 7 1012.4 - 0.0
31/03:00am 10.6 8.3 10.3 98 0.2 N 13 15 7 8 1012.8 1013.1 0.0
31/02:30am 10.6 9.0 10.3 98 0.2 N 9 13 5 7 1013.1 - 0.0
31/02:00am 10.0 8.3 9.7 98 0.2 N 9 11 5 6 1013.4 1013.7 0.0
31/01:30am 10.3 8.6 10.0 98 0.2 N 9 13 5 7 1013.6 - 0.0
31/01:00am 10.9 9.0 10.4 97 0.3 N 11 15 6 8 1013.5 1013.8 0.0
31/12:30am 10.6 9.4 10.3 98 0.2 N 7 11 4 6 1014.0 - 0.0
31/12:00am 10.7 9.1 10.1 96 0.3 N 9 11 5 6 1014.3 1014.6 0.0
 
Date/Time
EST
Temp
°C
App
Temp
°C
Dew
Point
Rel
Hum
%
Delta-T
°C
Wind Press
QNH
hPa
Press
MSL
hPa
Rain
since 9 am
mm
Dir
 
Spd
km/h
Gust
km/h
Spd
kts
Gust
kts
30/11:30pm 10.9 9.3 10.3 96 0.3 N 9 9 5 5 1014.8 - 0.0
30/11:00pm 10.7 9.2 10.4 98 0.2 N 9 11 5 6 1015.1 1015.3 0.0
30/10:30pm 10.7 9.4 9.9 95 0.4 N 7 9 4 5 1015.3 - 0.0
30/10:00pm 11.6 10.0 10.3 92 0.7 N 9 9 5 5 1015.4 1015.6 0.0
30/09:30pm 10.9 9.8 10.6 98 0.2 N 7 9 4 5 1015.6 - 0.0
30/09:00pm 11.1 9.6 10.6 97 0.3 N 9 9 5 5 1015.5 1015.7 0.0
30/08:30pm 11.5 10.5 10.4 93 0.6 N 6 9 3 5 1015.5 - 0.0
30/08:00pm 13.0 11.6 10.9 87 1.1 N 9 11 5 6 1015.6 1015.8 0.0
30/07:30pm 12.9 12.0 11.3 90 0.8 N 7 11 4 6 1015.8 - 0.0
30/07:00pm 13.3 12.1 11.7 90 0.9 N 9 9 5 5 1015.9 1016.1 0.0
30/06:30pm 13.4 12.1 11.3 87 1.1 N 9 11 5 6 1015.7 - 0.0
30/06:00pm 13.7 12.4 11.4 86 1.2 N 9 9 5 5 1015.5 1015.7 0.0
30/05:30pm 14.6 12.8 11.0 79 1.9 N 11 15 6 8 1015.3 - 0.0
30/05:00pm 15.5 13.7 10.7 73 2.6 NNW 11 19 6 10 1015.3 1015.5 0.0
30/04:30pm 16.2 12.8 10.5 69 3.0 NW 19 28 10 15 1015.3 - 0.0
30/04:00pm 16.4 13.9 10.9 70 3.0 NNW 15 20 8 11 1015.1 1015.3 0.0
30/03:30pm 16.7 13.4 10.8 68 3.2 NNW 19 28 10 15 1015.1 - 0.0
30/03:00pm 16.0 12.6 10.5 70 2.9 NW 19 28 10 15 1015.3 1015.5 0.0
30/02:30pm 15.8 12.4 10.6 71 2.8 NW 19 30 10 16 1015.5 - 0.0
30/02:00pm 15.8 13.0 11.2 74 2.5 NW 17 26 9 14 1015.6 1015.8 0.0
30/01:30pm 15.7 12.5 11.3 75 2.4 WNW 19 26 10 14 1015.8 - 0.0
30/01:00pm 15.6 12.5 11.6 77 2.2 WNW 19 26 10 14 1016.1 1016.3 0.0
30/12:30pm 15.8 12.6 11.4 75 2.4 NW 19 30 10 16 1016.4 - 0.0
30/12:00pm 15.5 12.6 11.1 75 2.4 NW 17 28 9 15 1016.9 1017.1 0.0
30/11:30am 15.7 12.4 11.7 77 2.2 NW 20 28 11 15 1017.2 - 0.0
30/11:00am 14.2 11.1 11.5 84 1.4 WNW 19 30 10 16 1017.7 1017.9 0.0
30/10:30am 13.5 10.2 11.7 89 1.0 WNW 20 30 11 16 1017.8 - 0.0
30/10:00am 14.3 10.4 10.9 80 1.8 NW 22 33 12 18 1017.7 1017.9 0.0
30/09:30am 13.8 10.9 11.0 83 1.5 NW 17 30 9 16 1017.5 - 0.0
30/09:00am 13.2 10.3 10.9 86 1.2 NW 17 26 9 14 1017.3 1017.5 0.0
30/08:30am 12.7 9.9 11.4 92 0.7 NW 17 28 9 15 1017.0 - 0.0
30/08:00am 12.0 9.3 11.7 98 0.2 NW 17 24 9 13 1016.8 1017.0 0.0
30/07:30am 11.9 9.9 11.6 98 0.2 NW 13 19 7 10 1017.0 - 0.0
30/07:00am 11.7 9.3 11.4 98 0.2 NW 15 20 8 11 1016.5 1016.7 0.0
30/06:30am 12.3 10.1 12.0 98 0.2 NNW 15 22 8 12 1016.2 - 0.0
30/06:00am 12.7 10.2 12.4 98 0.2 NW 17 24 9 13 1016.0 1016.2 0.0
30/05:30am 12.3 10.8 12.0 98 0.2 NW 11 17 6 9 1015.8 - 0.0
30/05:00am 11.7 10.4 11.4 98 0.2 NW 9 17 5 9 1015.5 1015.7 0.0
30/04:30am 12.4 10.2 12.1 98 0.2 NW 15 20 8 11 1015.5 - 0.0
30/04:00am 12.6 10.7 11.7 94 0.5 NW 13 22 7 12 1015.5 1015.7 0.0
30/03:30am 12.9 9.9 10.8 87 1.1 WNW 17 24 9 13 1015.7 - 0.0
30/03:00am 13.4 10.3 10.2 81 1.7 WNW 17 26 9 14 1015.9 1016.1 0.0
30/02:30am 13.6 10.4 10.0 79 1.9 NW 17 24 9 13 1015.9 - 0.0
30/02:00am 13.6 10.0 9.8 78 2.0 NW 19 28 10 15 1016.1 1016.3 0.0
30/01:30am 13.8 10.5 9.6 76 2.2 NW 17 24 9 13 1016.1 - 0.0
30/01:00am 13.9 10.5 9.3 74 2.4 NW 17 26 9 14 1016.3 1016.5 0.0
30/12:30am 14.1 10.7 9.3 73 2.5 NW 17 26 9 14 1016.1 - 0.0
30/12:00am 14.0 10.6 9.2 73 2.5 NW 17 24 9 13 1016.2 1016.4 0.0
 
Date/Time
EST
Temp
°C
App
Temp
°C
Dew
Point
Rel
Hum
%
Delta-T
°C
Wind Press
QNH
hPa
Press
MSL
hPa
Rain
since 9 am
mm
Dir
 
Spd
km/h
Gust
km/h
Spd
kts
Gust
kts
29/11:30pm 13.8 11.2 9.3 74 2.3 NW 13 19 7 10 1016.0 - 0.0
29/11:00pm 13.8 10.9 9.5 75 2.2 NW 15 22 8 12 1016.1 1016.3 0.0
29/10:30pm 13.9 10.5 9.3 74 2.4 NW 17 26 9 14 1016.1 - 0.0
29/10:00pm 14.3 11.3 9.3 72 2.6 NW 15 30 8 16 1016.3 1016.5 0.0
29/09:30pm 14.1 11.4 9.1 72 2.6 NW 13 19 7 10 1016.2 - 0.0
29/09:00pm 14.3 10.8 8.9 70 2.8 NW 17 24 9 13 1016.1 1016.3 0.0
29/08:30pm 14.6 10.7 8.8 68 3.0 WNW 19 28 10 15 1015.7 - 0.0
29/08:00pm 14.3 11.7 7.8 65 3.2 NW 11 15 6 8 1015.9 1016.1 0.0
29/07:30pm 14.2 10.9 7.9 66 3.1 NNW 15 24 8 13 1015.8 - 0.0
29/07:00pm 13.0 10.9 8.1 72 2.4 N 9 11 5 6 1015.6 1015.8 0.0
29/06:30pm 14.1 11.5 7.6 65 3.2 NNW 11 15 6 8 1015.3 - 0.0
29/06:00pm 15.1 12.6 6.7 57 4.1 NW 9 17 5 9 1015.1 1015.3 0.0
29/05:30pm 15.6 12.0 6.6 55 4.4 NW 15 24 8 13 1014.8 - 0.0
29/05:00pm 15.6 13.3 7.4 58 4.1 NW 9 13 5 7 1014.5 1014.8 0.0
29/04:30pm 16.3 11.7 6.7 53 4.7 NNW 20 30 11 16 1014.0 - 0.0
29/04:00pm 17.1 12.6 6.9 51 5.1 NNW 20 30 11 16 1014.0 1014.3 0.0
29/03:30pm 16.5 12.4 7.7 56 4.4 NNW 19 30 10 16 1014.0 - 0.0
29/03:00pm 16.6 11.8 7.5 55 4.6 NNW 22 30 12 16 1014.1 1014.4 0.0
29/02:30pm 16.3 11.2 7.5 56 4.4 NNW 24 35 13 19 1014.2 - 0.0
29/02:00pm 16.9 11.4 7.5 54 4.7 NNW 26 35 14 19 1014.1 1014.4 0.0
29/01:30pm 17.0 12.7 7.9 55 4.6 NNW 20 32 11 17 1014.3 - 0.0
29/01:00pm 16.1 11.4 7.6 57 4.3 NW 22 33 12 18 1015.0 1015.2 0.0
29/12:30pm 15.9 11.1 7.4 57 4.3 NW 22 35 12 19 1015.6 - 0.0
29/12:00pm 15.8 11.2 8.1 60 3.9 NNW 22 32 12 17 1015.9 1016.1 0.0
29/11:30am 15.1 11.0 8.8 66 3.2 NNW 20 24 11 13 1015.9 - 0.0
29/11:00am 14.1 10.9 8.5 69 2.8 N 15 22 8 12 1016.0 1016.2 0.0
29/10:30am 12.8 9.8 7.7 71 2.5 N 13 17 7 9 1017.3 - 0.0
29/10:00am 11.6 8.6 7.5 76 2.0 N 13 17 7 9 1017.6 1017.8 0.0
29/09:30am 10.3 8.1 7.9 85 1.2 N 9 13 5 7 1017.4 - 0.0
29/09:00am 8.9 6.2 7.4 90 0.7 N 11 17 6 9 1017.3 1017.5 0.0
29/08:30am 7.1 4.3 6.8 98 0.1 N 11 15 6 8 1016.5 - 0.0
29/08:00am 6.2 3.6 6.1 99 0.0 N 9 11 5 6 1016.9 1017.1 0.0
29/07:30am 4.9 3.0 4.8 99 0.0 N 4 7 2 4 1016.9 - 0.0
29/07:00am 4.8 2.3 4.7 99 0.0 N 7 7 4 4 1016.1 1016.3 0.0
29/06:30am 5.3 2.5 5.2 99 0.0 N 9 11 5 6 1015.8 - 0.0
29/06:00am 5.1 2.6 5.0 99 0.0 NNE 7 9 4 5 1015.7 1015.9 0.0
29/05:30am 5.3 3.1 5.2 99 0.0 NNE 6 7 3 4 1015.7 - 0.0
29/05:00am 5.3 2.9 5.2 99 0.0 NNE 7 9 4 5 1015.4 1015.6 0.0
29/04:30am 4.3 1.7 4.2 99 0.0 ENE 7 11 4 6 1015.5 - 0.0
29/04:00am 3.8 0.7 3.7 99 0.0 ENE 9 9 5 5 1015.6 1015.8 0.0
29/03:30am 5.0 3.1 4.9 99 0.0 NE 4 6 2 3 1015.9 - 0.0
29/03:00am 5.8 3.7 5.7 99 0.0 NE 6 7 3 4 1016.0 1016.2 0.0
29/02:30am 5.9 3.6 5.8 99 0.0 NE 7 7 4 4 1016.0 - 0.0
29/02:00am 5.7 3.4 5.6 99 0.0 NNE 7 7 4 4 1016.2 1016.4 0.0
29/01:30am 5.1 2.8 5.0 99 0.0 NE 6 7 3 4 1016.3 - 0.0
29/01:00am 5.2 3.7 4.9 98 0.1 NNE 2 6 1 3 1016.3 1016.5 0.0
29/12:30am 6.9 4.4 6.6 98 0.1 NNE 9 11 5 6 1016.3 - 0.0
29/12:00am 7.2 4.8 6.9 98 0.1 NE 9 9 5 5 1016.5 1016.7 0.0
 
Date/Time
EST
Temp
°C
App
Temp
°C
Dew
Point
Rel
Hum
%
Delta-T
°C
Wind Press
QNH
hPa
Press
MSL
hPa
Rain
since 9 am
mm
Dir
 
Spd
km/h
Gust
km/h
Spd
kts
Gust
kts
28/11:30pm 6.8 4.3 6.5 98 0.1 NE 9 9 5 5 1016.5 - 0.0
28/11:00pm 7.7 5.4 7.4 98 0.1 NE 9 11 5 6 1016.5 1016.7 0.0
28/10:30pm 7.6 5.6 7.3 98 0.1 ENE 7 9 4 5 1016.8 - 0.0
28/10:00pm 7.9 6.0 7.6 98 0.1 ENE 7 9 4 5 1016.9 1017.1 0.0
28/09:30pm 9.5 8.1 8.9 96 0.3 NE 6 9 3 5 1017.0 - 0.0
28/09:00pm 9.2 7.3 8.9 98 0.1 ENE 9 11 5 6 1016.9 1017.1 0.0
28/08:30pm 9.1 6.7 8.6 97 0.2 ENE 11 11 6 6 1017.0 - 0.0
28/08:00pm 9.1 7.6 8.5 96 0.3 ENE 6 7 3 4 1017.1 1017.3 0.0
28/07:30pm 9.7 7.9 8.1 90 0.8 NE 7 9 4 5 1016.8 - 0.0

Other Formats:

Comma delimited format used in spreadsheet applications
http://www.bom.gov.au/fwo/IDV60801/IDV60801.94862.axf

JavaScript Object Notation format (JSON) in row-major order
http://www.bom.gov.au/fwo/IDV60801/IDV60801.94862.json